ROMMA est une association bénévole à but non lucratif. Votre soutien est indispensable : ADHERER à ROMMA ou FAIRE un DON

Crempigny-Bonneguête - (74, Haute-Savoie)

Albanais-Montagne des Princes (500 m)   Longitude: 05° 54' 5" E   Latitude: 45° 57' 0" N Station partenaire n°10
 

Détail journalier du     <<     >>

Température Precipitation Humidité Pression Vent Dir Rafale Dir. rafale Ensol. 20 cm au dessus du sol
Heure (°C) (mm) (%) (hPa) (km/h) (km/h) (min) (°C)
01:00 11.107410202ONO8ONO09.4
02:00 11.307210202NNO6NNO09.4
03:00 9.707910202NNO5NNO08.3
04:00 9.707910201NNO5NNO08.3
05:00 9.608010202NNO5NNO08.3
06:00 9.208110202NNO6NNO07.8
07:00 8.708310202NNO5NNO06.7
08:00 8.808510212N8N207.8
09:00 10.208310211N6N109.4
10:00 11.908010213S6N4514.4
11:00 16.406610216ENE16NNE6018.9
12:00 17.306210206NNE15ONO6019.4
13:00 18.406510206NNE15N6020.6
14:00 20.405810195NNE16NNE6022.2
15:00 20.505310195NNE16N3522.2
16:00 20.305310194ENE18NE021.1
17:00 21.005110195NO11ONO5522.8
18:00 21.004710194NE11NNO6022.2
19:00 20.805210194N13NE6020.6
20:00 18.405510193OSO13OSO1016.7
21:00 16.905610202SE8NNE014.4
22:00 15.506010212N6NNO013.3
23:00 14.906210221ENE5NO012.2
minuit 13.906510222ENE6NO011.7

Graphique du 18-04-2019

 

Serveur OMMA